sensor_id;sensor_type;location;lat;lon;timestamp;temperature;humidity
40123;DHT22;25832;45.490;4.912;2022-09-09T00:01:11;16.40;99.90
40123;DHT22;25832;45.490;4.912;2022-09-09T00:04:18;16.40;99.90
40123;DHT22;25832;45.490;4.912;2022-09-09T00:09:39;16.40;99.90
40123;DHT22;25832;45.490;4.912;2022-09-09T00:14:58;16.20;99.90
40123;DHT22;25832;45.490;4.912;2022-09-09T00:17:34;16.10;99.90
40123;DHT22;25832;45.490;4.912;2022-09-09T00:20:21;16.00;99.90
40123;DHT22;25832;45.490;4.912;2022-09-09T00:23:03;15.90;99.90
40123;DHT22;25832;45.490;4.912;2022-09-09T00:25:40;15.80;99.90
40123;DHT22;25832;45.490;4.912;2022-09-09T00:28:27;15.80;99.90
40123;DHT22;25832;45.490;4.912;2022-09-09T00:31:14;15.80;99.90
40123;DHT22;25832;45.490;4.912;2022-09-09T00:33:43;15.70;99.90
40123;DHT22;25832;45.490;4.912;2022-09-09T00:36:18;15.70;99.90
40123;DHT22;25832;45.490;4.912;2022-09-09T00:38:56;15.70;99.90
40123;DHT22;25832;45.490;4.912;2022-09-09T00:46:41;15.70;99.90
40123;DHT22;25832;45.490;4.912;2022-09-09T00:49:32;15.70;99.90
40123;DHT22;25832;45.490;4.912;2022-09-09T00:57:23;15.60;99.90
40123;DHT22;25832;45.490;4.912;2022-09-09T01:06:00;15.50;99.90
40123;DHT22;25832;45.490;4.912;2022-09-09T01:09:02;15.60;99.90
40123;DHT22;25832;45.490;4.912;2022-09-09T01:17:32;15.50;99.90
40123;DHT22;25832;45.490;4.912;2022-09-09T01:28:25;15.30;99.90
40123;DHT22;25832;45.490;4.912;2022-09-09T01:30:52;15.40;99.90
40123;DHT22;25832;45.490;4.912;2022-09-09T01:33:18;15.40;99.90
40123;DHT22;25832;45.490;4.912;2022-09-09T01:35:52;15.30;99.90
40123;DHT22;25832;45.490;4.912;2022-09-09T01:38:24;15.20;99.90
40123;DHT22;25832;45.490;4.912;2022-09-09T01:40:50;15.20;99.90
40123;DHT22;25832;45.490;4.912;2022-09-09T01:43:23;15.20;99.90
40123;DHT22;25832;45.490;4.912;2022-09-09T01:45:52;15.10;99.90
40123;DHT22;25832;45.490;4.912;2022-09-09T01:48:21;15.10;99.90
40123;DHT22;25832;45.490;4.912;2022-09-09T01:50:47;15.10;99.90
40123;DHT22;25832;45.490;4.912;2022-09-09T01:53:13;15.10;99.90
40123;DHT22;25832;45.490;4.912;2022-09-09T01:58:45;15.00;99.90
40123;DHT22;25832;45.490;4.912;2022-09-09T02:01:42;15.00;99.90
40123;DHT22;25832;45.490;4.912;2022-09-09T02:07:10;14.80;99.90
40123;DHT22;25832;45.490;4.912;2022-09-09T02:09:40;14.70;99.90
40123;DHT22;25832;45.490;4.912;2022-09-09T02:12:12;14.80;99.90
40123;DHT22;25832;45.490;4.912;2022-09-09T02:14:50;14.70;99.90
40123;DHT22;25832;45.490;4.912;2022-09-09T02:17:26;14.70;99.90
40123;DHT22;25832;45.490;4.912;2022-09-09T02:20:04;14.60;99.90
40123;DHT22;25832;45.490;4.912;2022-09-09T02:22:31;14.60;99.90
40123;DHT22;25832;45.490;4.912;2022-09-09T02:25:00;14.60;99.90
40123;DHT22;25832;45.490;4.912;2022-09-09T02:27:26;14.60;99.90
40123;DHT22;25832;45.490;4.912;2022-09-09T02:29:53;14.50;99.90
40123;DHT22;25832;45.490;4.912;2022-09-09T02:32:23;14.60;99.90
40123;DHT22;25832;45.490;4.912;2022-09-09T02:35:00;14.60;99.90
40123;DHT22;25832;45.490;4.912;2022-09-09T02:37:33;14.50;99.90
40123;DHT22;25832;45.490;4.912;2022-09-09T02:40:05;14.60;99.90
40123;DHT22;25832;45.490;4.912;2022-09-09T02:42:32;14.60;99.90
40123;DHT22;25832;45.490;4.912;2022-09-09T02:44:57;14.50;99.90
40123;DHT22;25832;45.490;4.912;2022-09-09T02:47:47;14.40;99.90
40123;DHT22;25832;45.490;4.912;2022-09-09T02:50:29;14.40;99.90
40123;DHT22;25832;45.490;4.912;2022-09-09T02:54:00;14.50;99.90
40123;DHT22;25832;45.490;4.912;2022-09-09T02:56:04;14.50;99.90
40123;DHT22;25832;45.490;4.912;2022-09-09T02:58:31;14.60;99.90
40123;DHT22;25832;45.490;4.912;2022-09-09T03:00:57;14.70;99.90
40123;DHT22;25832;45.490;4.912;2022-09-09T03:03:24;14.80;99.90
40123;DHT22;25832;45.490;4.912;2022-09-09T03:05:50;15.00;99.90
40123;DHT22;25832;45.490;4.912;2022-09-09T03:08:15;15.10;99.90
40123;DHT22;25832;45.490;4.912;2022-09-09T03:10:41;15.20;99.90
40123;DHT22;25832;45.490;4.912;2022-09-09T03:13:07;15.20;99.90
40123;DHT22;25832;45.490;4.912;2022-09-09T03:15:34;15.30;99.90
40123;DHT22;25832;45.490;4.912;2022-09-09T03:18:00;15.40;99.90
40123;DHT22;25832;45.490;4.912;2022-09-09T03:20:27;15.50;99.90
40123;DHT22;25832;45.490;4.912;2022-09-09T03:22:54;15.40;99.90
40123;DHT22;25832;45.490;4.912;2022-09-09T03:25:20;15.40;99.90
40123;DHT22;25832;45.490;4.912;2022-09-09T03:27:48;15.40;99.90
40123;DHT22;25832;45.490;4.912;2022-09-09T03:30:15;15.30;99.90
40123;DHT22;25832;45.490;4.912;2022-09-09T03:32:41;15.30;99.90
40123;DHT22;25832;45.490;4.912;2022-09-09T03:35:07;15.20;99.90
40123;DHT22;25832;45.490;4.912;2022-09-09T03:37:33;14.90;99.90
40123;DHT22;25832;45.490;4.912;2022-09-09T03:39:59;14.80;99.90
40123;DHT22;25832;45.490;4.912;2022-09-09T03:42:25;14.60;99.90
40123;DHT22;25832;45.490;4.912;2022-09-09T03:44:51;14.50;99.90
40123;DHT22;25832;45.490;4.912;2022-09-09T03:47:21;14.50;99.90
40123;DHT22;25832;45.490;4.912;2022-09-09T03:49:49;14.60;99.90
40123;DHT22;25832;45.490;4.912;2022-09-09T03:52:15;14.70;99.90
40123;DHT22;25832;45.490;4.912;2022-09-09T03:54:41;14.90;99.90
40123;DHT22;25832;45.490;4.912;2022-09-09T03:57:09;15.00;99.90
40123;DHT22;25832;45.490;4.912;2022-09-09T03:59:35;15.10;99.90
40123;DHT22;25832;45.490;4.912;2022-09-09T04:02:01;15.30;99.90
40123;DHT22;25832;45.490;4.912;2022-09-09T04:04:27;15.50;99.90
40123;DHT22;25832;45.490;4.912;2022-09-09T04:06:53;15.70;99.90
40123;DHT22;25832;45.490;4.912;2022-09-09T04:09:19;15.80;99.90
40123;DHT22;25832;45.490;4.912;2022-09-09T04:11:45;15.90;99.90
40123;DHT22;25832;45.490;4.912;2022-09-09T04:14:11;16.00;99.90
40123;DHT22;25832;45.490;4.912;2022-09-09T04:16:38;16.10;99.90
40123;DHT22;25832;45.490;4.912;2022-09-09T04:19:04;16.20;99.90
40123;DHT22;25832;45.490;4.912;2022-09-09T04:21:32;16.30;99.90
40123;DHT22;25832;45.490;4.912;2022-09-09T04:23:58;16.40;99.90
40123;DHT22;25832;45.490;4.912;2022-09-09T04:26:23;16.40;99.90
40123;DHT22;25832;45.490;4.912;2022-09-09T04:28:49;16.50;99.90
40123;DHT22;25832;45.490;4.912;2022-09-09T04:31:18;16.50;99.90
40123;DHT22;25832;45.490;4.912;2022-09-09T04:33:45;16.60;99.90
40123;DHT22;25832;45.490;4.912;2022-09-09T04:36:12;16.60;99.90
40123;DHT22;25832;45.490;4.912;2022-09-09T04:38:39;16.60;99.90
40123;DHT22;25832;45.490;4.912;2022-09-09T04:41:05;16.60;99.90
40123;DHT22;25832;45.490;4.912;2022-09-09T04:43:31;16.60;99.90
40123;DHT22;25832;45.490;4.912;2022-09-09T04:45:57;16.50;99.90
40123;DHT22;25832;45.490;4.912;2022-09-09T04:48:24;16.50;99.90
40123;DHT22;25832;45.490;4.912;2022-09-09T04:50:58;16.50;99.90
40123;DHT22;25832;45.490;4.912;2022-09-09T04:53:24;16.60;99.90
40123;DHT22;25832;45.490;4.912;2022-09-09T04:55:51;16.50;99.90
40123;DHT22;25832;45.490;4.912;2022-09-09T04:58:17;16.50;99.90
40123;DHT22;25832;45.490;4.912;2022-09-09T05:00:43;16.40;99.90
40123;DHT22;25832;45.490;4.912;2022-09-09T05:03:09;16.30;99.90
40123;DHT22;25832;45.490;4.912;2022-09-09T05:05:35;16.20;99.90
40123;DHT22;25832;45.490;4.912;2022-09-09T05:08:08;16.00;99.90
40123;DHT22;25832;45.490;4.912;2022-09-09T05:10:37;15.80;99.90
40123;DHT22;25832;45.490;4.912;2022-09-09T05:13:03;15.50;99.90
40123;DHT22;25832;45.490;4.912;2022-09-09T05:15:30;15.20;99.90
40123;DHT22;25832;45.490;4.912;2022-09-09T05:17:59;14.90;99.90
40123;DHT22;25832;45.490;4.912;2022-09-09T05:20:26;14.70;99.90
40123;DHT22;25832;45.490;4.912;2022-09-09T05:22:53;14.60;99.90
40123;DHT22;25832;45.490;4.912;2022-09-09T05:25:20;14.60;99.90
40123;DHT22;25832;45.490;4.912;2022-09-09T05:27:45;14.40;99.90
40123;DHT22;25832;45.490;4.912;2022-09-09T05:30:11;14.30;99.90
40123;DHT22;25832;45.490;4.912;2022-09-09T05:32:37;14.20;99.90
40123;DHT22;25832;45.490;4.912;2022-09-09T05:35:03;14.10;99.90
40123;DHT22;25832;45.490;4.912;2022-09-09T05:37:31;13.90;99.90
40123;DHT22;25832;45.490;4.912;2022-09-09T05:39:57;13.90;99.90
40123;DHT22;25832;45.490;4.912;2022-09-09T05:42:23;13.90;99.90
40123;DHT22;25832;45.490;4.912;2022-09-09T05:44:49;14.00;99.90
40123;DHT22;25832;45.490;4.912;2022-09-09T05:47:16;14.20;99.90
40123;DHT22;25832;45.490;4.912;2022-09-09T05:49:42;14.60;99.90
40123;DHT22;25832;45.490;4.912;2022-09-09T05:52:08;14.90;99.90
40123;DHT22;25832;45.490;4.912;2022-09-09T05:54:35;15.10;99.90
40123;DHT22;25832;45.490;4.912;2022-09-09T05:57:02;15.30;99.90
40123;DHT22;25832;45.490;4.912;2022-09-09T05:59:27;15.50;99.90
40123;DHT22;25832;45.490;4.912;2022-09-09T06:01:53;15.80;99.90
40123;DHT22;25832;45.490;4.912;2022-09-09T06:04:19;16.00;99.90
40123;DHT22;25832;45.490;4.912;2022-09-09T06:06:49;16.10;99.90
40123;DHT22;25832;45.490;4.912;2022-09-09T06:09:15;16.20;99.90
40123;DHT22;25832;45.490;4.912;2022-09-09T06:11:42;16.30;99.90
40123;DHT22;25832;45.490;4.912;2022-09-09T06:14:08;16.50;99.90
40123;DHT22;25832;45.490;4.912;2022-09-09T06:16:35;16.50;99.90
40123;DHT22;25832;45.490;4.912;2022-09-09T06:19:03;16.70;99.90
40123;DHT22;25832;45.490;4.912;2022-09-09T06:21:38;16.80;99.90
40123;DHT22;25832;45.490;4.912;2022-09-09T06:24:04;17.00;99.90
40123;DHT22;25832;45.490;4.912;2022-09-09T06:26:32;17.30;99.90
40123;DHT22;25832;45.490;4.912;2022-09-09T06:28:59;17.60;99.90
40123;DHT22;25832;45.490;4.912;2022-09-09T06:31:27;17.70;99.90
40123;DHT22;25832;45.490;4.912;2022-09-09T06:33:56;17.80;99.90
40123;DHT22;25832;45.490;4.912;2022-09-09T06:36:24;17.90;99.90
40123;DHT22;25832;45.490;4.912;2022-09-09T06:38:50;17.90;99.90
40123;DHT22;25832;45.490;4.912;2022-09-09T06:41:18;17.80;99.90
40123;DHT22;25832;45.490;4.912;2022-09-09T06:43:45;17.80;99.90
40123;DHT22;25832;45.490;4.912;2022-09-09T06:48:42;17.90;99.90
40123;DHT22;25832;45.490;4.912;2022-09-09T06:51:17;18.10;99.90
40123;DHT22;25832;45.490;4.912;2022-09-09T06:53:44;18.20;99.90
40123;DHT22;25832;45.490;4.912;2022-09-09T06:58:37;18.40;99.90
40123;DHT22;25832;45.490;4.912;2022-09-09T07:01:04;18.60;99.90
40123;DHT22;25832;45.490;4.912;2022-09-09T07:03:30;19.00;99.90
40123;DHT22;25832;45.490;4.912;2022-09-09T07:05:56;19.30;99.90
40123;DHT22;25832;45.490;4.912;2022-09-09T07:08:22;19.60;99.90
40123;DHT22;25832;45.490;4.912;2022-09-09T07:10:48;19.90;99.90
40123;DHT22;25832;45.490;4.912;2022-09-09T07:13:14;20.10;99.10
40123;DHT22;25832;45.490;4.912;2022-09-09T07:15:41;20.10;99.00
40123;DHT22;25832;45.490;4.912;2022-09-09T07:18:07;20.00;99.10
40123;DHT22;25832;45.490;4.912;2022-09-09T07:20:35;20.00;99.90
40123;DHT22;25832;45.490;4.912;2022-09-09T07:23:01;20.10;99.90
40123;DHT22;25832;45.490;4.912;2022-09-09T07:25:26;20.00;99.80
40123;DHT22;25832;45.490;4.912;2022-09-09T07:27:56;20.10;98.40
40123;DHT22;25832;45.490;4.912;2022-09-09T07:30:22;20.20;98.70
40123;DHT22;25832;45.490;4.912;2022-09-09T07:32:48;20.30;99.10
40123;DHT22;25832;45.490;4.912;2022-09-09T07:35:16;20.50;99.90
40123;DHT22;25832;45.490;4.912;2022-09-09T07:37:42;20.50;99.90
40123;DHT22;25832;45.490;4.912;2022-09-09T07:40:07;20.40;99.90
40123;DHT22;25832;45.490;4.912;2022-09-09T07:42:33;20.50;99.90
40123;DHT22;25832;45.490;4.912;2022-09-09T07:44:59;20.60;99.10
40123;DHT22;25832;45.490;4.912;2022-09-09T07:47:25;20.80;99.00
40123;DHT22;25832;45.490;4.912;2022-09-09T07:49:50;20.90;97.60
40123;DHT22;25832;45.490;4.912;2022-09-09T07:52:16;21.00;97.60
40123;DHT22;25832;45.490;4.912;2022-09-09T07:54:42;21.20;99.30
40123;DHT22;25832;45.490;4.912;2022-09-09T07:57:08;21.30;99.30
40123;DHT22;25832;45.490;4.912;2022-09-09T07:59:33;21.40;99.10
40123;DHT22;25832;45.490;4.912;2022-09-09T08:01:59;21.50;98.00
40123;DHT22;25832;45.490;4.912;2022-09-09T08:04:25;21.60;98.10
40123;DHT22;25832;45.490;4.912;2022-09-09T08:06:58;21.80;93.80
40123;DHT22;25832;45.490;4.912;2022-09-09T08:09:25;21.50;91.80
40123;DHT22;25832;45.490;4.912;2022-09-09T08:11:52;21.40;93.00
40123;DHT22;25832;45.490;4.912;2022-09-09T08:14:18;21.60;93.90
40123;DHT22;25832;45.490;4.912;2022-09-09T08:16:47;21.80;92.80
40123;DHT22;25832;45.490;4.912;2022-09-09T08:19:13;21.80;91.00
40123;DHT22;25832;45.490;4.912;2022-09-09T08:21:42;21.80;91.20
40123;DHT22;25832;45.490;4.912;2022-09-09T08:24:09;22.00;91.40
40123;DHT22;25832;45.490;4.912;2022-09-09T08:26:38;22.20;91.50
40123;DHT22;25832;45.490;4.912;2022-09-09T08:29:06;22.40;91.00
40123;DHT22;25832;45.490;4.912;2022-09-09T08:31:34;22.60;90.90
40123;DHT22;25832;45.490;4.912;2022-09-09T08:34:01;22.70;90.00
40123;DHT22;25832;45.490;4.912;2022-09-09T08:36:32;22.60;89.30
40123;DHT22;25832;45.490;4.912;2022-09-09T08:39:03;22.40;89.40
40123;DHT22;25832;45.490;4.912;2022-09-09T08:47:36;22.00;90.50
40123;DHT22;25832;45.490;4.912;2022-09-09T08:50:22;22.10;90.20
40123;DHT22;25832;45.490;4.912;2022-09-09T08:57:50;22.20;87.60
40123;DHT22;25832;45.490;4.912;2022-09-09T09:00:18;22.20;90.00
40123;DHT22;25832;45.490;4.912;2022-09-09T09:07:59;22.30;89.50
40123;DHT22;25832;45.490;4.912;2022-09-09T09:13:01;22.50;88.70
40123;DHT22;25832;45.490;4.912;2022-09-09T09:15:36;22.60;88.10
40123;DHT22;25832;45.490;4.912;2022-09-09T09:18:04;22.70;86.60
40123;DHT22;25832;45.490;4.912;2022-09-09T09:23:25;22.70;89.10
40123;DHT22;25832;45.490;4.912;2022-09-09T09:25:58;22.90;88.40
40123;DHT22;25832;45.490;4.912;2022-09-09T09:28:29;23.20;86.40
40123;DHT22;25832;45.490;4.912;2022-09-09T09:31:03;23.40;84.70
40123;DHT22;25832;45.490;4.912;2022-09-09T09:33:48;23.40;86.00
40123;DHT22;25832;45.490;4.912;2022-09-09T09:36:15;23.50;83.60
40123;DHT22;25832;45.490;4.912;2022-09-09T09:38:56;23.50;85.30
40123;DHT22;25832;45.490;4.912;2022-09-09T09:41:34;23.60;82.40
40123;DHT22;25832;45.490;4.912;2022-09-09T09:44:01;23.80;83.80
40123;DHT22;25832;45.490;4.912;2022-09-09T09:46:27;23.90;83.50
40123;DHT22;25832;45.490;4.912;2022-09-09T09:49:04;24.00;84.00
40123;DHT22;25832;45.490;4.912;2022-09-09T09:51:32;24.20;83.50
40123;DHT22;25832;45.490;4.912;2022-09-09T09:56:35;24.40;80.60
40123;DHT22;25832;45.490;4.912;2022-09-09T09:59:01;23.90;78.60
40123;DHT22;25832;45.490;4.912;2022-09-09T10:01:28;23.60;79.80
40123;DHT22;25832;45.490;4.912;2022-09-09T10:04:19;23.30;80.70
40123;DHT22;25832;45.490;4.912;2022-09-09T10:06:46;23.00;80.30
40123;DHT22;25832;45.490;4.912;2022-09-09T10:14:27;23.00;84.50
40123;DHT22;25832;45.490;4.912;2022-09-09T10:17:08;23.10;83.00
40123;DHT22;25832;45.490;4.912;2022-09-09T10:19:46;23.40;81.20
40123;DHT22;25832;45.490;4.912;2022-09-09T10:22:18;23.70;82.30
40123;DHT22;25832;45.490;4.912;2022-09-09T10:46:47;25.10;74.90
40123;DHT22;25832;45.490;4.912;2022-09-09T10:57:36;25.40;75.10
40123;DHT22;25832;45.490;4.912;2022-09-09T11:00:10;25.20;75.00
40123;DHT22;25832;45.490;4.912;2022-09-09T11:02:40;25.00;74.70
40123;DHT22;25832;45.490;4.912;2022-09-09T11:05:25;25.10;76.00
40123;DHT22;25832;45.490;4.912;2022-09-09T11:07:58;25.20;76.60
40123;DHT22;25832;45.490;4.912;2022-09-09T11:11:27;25.40;76.30
40123;DHT22;25832;45.490;4.912;2022-09-09T11:16:22;25.90;74.50
40123;DHT22;25832;45.490;4.912;2022-09-09T11:18:53;25.80;73.00
40123;DHT22;25832;45.490;4.912;2022-09-09T11:21:26;25.50;72.10
40123;DHT22;25832;45.490;4.912;2022-09-09T11:23:57;25.20;73.00
40123;DHT22;25832;45.490;4.912;2022-09-09T11:26:35;25.00;71.70
40123;DHT22;25832;45.490;4.912;2022-09-09T11:34:45;24.90;73.60
40123;DHT22;25832;45.490;4.912;2022-09-09T11:37:30;24.70;75.20
40123;DHT22;25832;45.490;4.912;2022-09-09T11:42:47;24.40;78.90
40123;DHT22;25832;45.490;4.912;2022-09-09T11:45:23;24.40;75.70
40123;DHT22;25832;45.490;4.912;2022-09-09T11:48:00;24.40;73.70
40123;DHT22;25832;45.490;4.912;2022-09-09T11:50:27;24.50;75.20
40123;DHT22;25832;45.490;4.912;2022-09-09T11:53:20;24.50;75.00
40123;DHT22;25832;45.490;4.912;2022-09-09T11:55:48;24.40;74.90
40123;DHT22;25832;45.490;4.912;2022-09-09T11:58:24;24.10;75.30
40123;DHT22;25832;45.490;4.912;2022-09-09T12:00:51;24.10;80.00
40123;DHT22;25832;45.490;4.912;2022-09-09T12:03:39;24.10;76.70
40123;DHT22;25832;45.490;4.912;2022-09-09T12:06:25;24.30;77.90
40123;DHT22;25832;45.490;4.912;2022-09-09T12:08:56;24.60;78.30
40123;DHT22;25832;45.490;4.912;2022-09-09T12:11:25;25.00;77.30
40123;DHT22;25832;45.490;4.912;2022-09-09T12:13:55;25.20;73.80
40123;DHT22;25832;45.490;4.912;2022-09-09T12:16:29;25.20;77.00
40123;DHT22;25832;45.490;4.912;2022-09-09T12:19:04;25.40;75.70
40123;DHT22;25832;45.490;4.912;2022-09-09T12:24:27;25.80;75.20
40123;DHT22;25832;45.490;4.912;2022-09-09T12:27:06;26.00;74.30
40123;DHT22;25832;45.490;4.912;2022-09-09T12:29:59;26.20;74.80
40123;DHT22;25832;45.490;4.912;2022-09-09T12:32:27;26.40;72.70
40123;DHT22;25832;45.490;4.912;2022-09-09T12:37:58;26.20;75.80
40123;DHT22;25832;45.490;4.912;2022-09-09T12:40:30;26.20;74.80
40123;DHT22;25832;45.490;4.912;2022-09-09T12:42:57;26.20;73.90
40123;DHT22;25832;45.490;4.912;2022-09-09T12:45:28;26.30;74.10
40123;DHT22;25832;45.490;4.912;2022-09-09T12:48:02;26.50;72.80
40123;DHT22;25832;45.490;4.912;2022-09-09T12:50:37;26.60;72.70
40123;DHT22;25832;45.490;4.912;2022-09-09T12:53:28;26.70;71.60
40123;DHT22;25832;45.490;4.912;2022-09-09T12:56:00;26.60;74.40
40123;DHT22;25832;45.490;4.912;2022-09-09T12:58:29;26.50;73.00
40123;DHT22;25832;45.490;4.912;2022-09-09T13:00:58;26.20;72.00
40123;DHT22;25832;45.490;4.912;2022-09-09T13:03:26;26.20;72.60
40123;DHT22;25832;45.490;4.912;2022-09-09T13:05:53;26.00;70.50
40123;DHT22;25832;45.490;4.912;2022-09-09T13:08:20;25.80;73.30
40123;DHT22;25832;45.490;4.912;2022-09-09T13:11:02;25.80;74.10
40123;DHT22;25832;45.490;4.912;2022-09-09T13:13:37;25.80;68.30
40123;DHT22;25832;45.490;4.912;2022-09-09T13:16:06;25.90;69.60
40123;DHT22;25832;45.490;4.912;2022-09-09T13:18:40;26.00;71.10
40123;DHT22;25832;45.490;4.912;2022-09-09T13:21:06;26.10;71.60
40123;DHT22;25832;45.490;4.912;2022-09-09T13:23:36;26.20;70.60
40123;DHT22;25832;45.490;4.912;2022-09-09T13:26:05;26.30;74.40
40123;DHT22;25832;45.490;4.912;2022-09-09T13:28:32;26.40;70.20
40123;DHT22;25832;45.490;4.912;2022-09-09T13:30:59;26.30;70.60
40123;DHT22;25832;45.490;4.912;2022-09-09T13:33:31;26.30;71.80
40123;DHT22;25832;45.490;4.912;2022-09-09T13:36:01;26.30;70.00
40123;DHT22;25832;45.490;4.912;2022-09-09T13:38:29;26.30;71.80
40123;DHT22;25832;45.490;4.912;2022-09-09T13:40:58;26.30;70.00
40123;DHT22;25832;45.490;4.912;2022-09-09T13:43:25;26.20;70.50
40123;DHT22;25832;45.490;4.912;2022-09-09T13:46:00;26.30;72.80
40123;DHT22;25832;45.490;4.912;2022-09-09T13:48:27;26.30;71.50
40123;DHT22;25832;45.490;4.912;2022-09-09T13:51:26;26.30;70.00
40123;DHT22;25832;45.490;4.912;2022-09-09T13:53:53;26.10;71.50
40123;DHT22;25832;45.490;4.912;2022-09-09T13:56:19;25.70;69.80
40123;DHT22;25832;45.490;4.912;2022-09-09T13:58:45;25.40;71.30
40123;DHT22;25832;45.490;4.912;2022-09-09T14:01:11;25.00;71.70
40123;DHT22;25832;45.490;4.912;2022-09-09T14:03:36;25.00;71.80
40123;DHT22;25832;45.490;4.912;2022-09-09T14:06:02;24.90;72.30
40123;DHT22;25832;45.490;4.912;2022-09-09T14:08:28;24.80;72.70
40123;DHT22;25832;45.490;4.912;2022-09-09T14:11:03;25.00;72.50
40123;DHT22;25832;45.490;4.912;2022-09-09T14:13:28;25.10;71.60
40123;DHT22;25832;45.490;4.912;2022-09-09T14:15:54;25.30;72.40
40123;DHT22;25832;45.490;4.912;2022-09-09T14:18:20;25.60;72.60
40123;DHT22;25832;45.490;4.912;2022-09-09T14:20:47;25.80;70.40
40123;DHT22;25832;45.490;4.912;2022-09-09T14:23:13;26.00;71.30
40123;DHT22;25832;45.490;4.912;2022-09-09T14:25:42;26.20;71.30
40123;DHT22;25832;45.490;4.912;2022-09-09T14:28:12;26.40;70.50
40123;DHT22;25832;45.490;4.912;2022-09-09T14:30:39;26.50;69.90
40123;DHT22;25832;45.490;4.912;2022-09-09T14:33:07;26.60;71.70
40123;DHT22;25832;45.490;4.912;2022-09-09T14:35:33;26.70;69.60
40123;DHT22;25832;45.490;4.912;2022-09-09T14:37:59;26.70;68.60
40123;DHT22;25832;45.490;4.912;2022-09-09T14:40:26;26.70;67.70
40123;DHT22;25832;45.490;4.912;2022-09-09T14:42:53;26.70;67.60
40123;DHT22;25832;45.490;4.912;2022-09-09T14:45:18;26.70;68.50
40123;DHT22;25832;45.490;4.912;2022-09-09T14:47:44;26.70;66.80
40123;DHT22;25832;45.490;4.912;2022-09-09T14:50:10;26.70;68.90
40123;DHT22;25832;45.490;4.912;2022-09-09T14:52:37;26.70;68.70
40123;DHT22;25832;45.490;4.912;2022-09-09T14:55:04;26.80;66.00
40123;DHT22;25832;45.490;4.912;2022-09-09T14:57:30;26.80;66.60
40123;DHT22;25832;45.490;4.912;2022-09-09T14:59:56;26.90;67.70
40123;DHT22;25832;45.490;4.912;2022-09-09T15:02:22;27.00;67.10
40123;DHT22;25832;45.490;4.912;2022-09-09T15:04:47;27.10;67.90
40123;DHT22;25832;45.490;4.912;2022-09-09T15:07:15;27.10;66.10
40123;DHT22;25832;45.490;4.912;2022-09-09T15:09:42;27.10;63.90
40123;DHT22;25832;45.490;4.912;2022-09-09T15:12:08;27.10;65.50
40123;DHT22;25832;45.490;4.912;2022-09-09T15:14:34;27.20;65.70
40123;DHT22;25832;45.490;4.912;2022-09-09T15:17:00;27.10;64.20
40123;DHT22;25832;45.490;4.912;2022-09-09T15:19:26;27.00;64.90
40123;DHT22;25832;45.490;4.912;2022-09-09T15:21:52;27.00;67.30
40123;DHT22;25832;45.490;4.912;2022-09-09T15:24:17;27.10;65.20
40123;DHT22;25832;45.490;4.912;2022-09-09T15:26:43;27.00;66.20
40123;DHT22;25832;45.490;4.912;2022-09-09T15:29:09;27.00;65.70
40123;DHT22;25832;45.490;4.912;2022-09-09T15:31:35;27.00;65.10
40123;DHT22;25832;45.490;4.912;2022-09-09T15:34:06;27.00;65.90
40123;DHT22;25832;45.490;4.912;2022-09-09T15:36:34;27.00;64.90
40123;DHT22;25832;45.490;4.912;2022-09-09T15:39:00;27.10;65.00
40123;DHT22;25832;45.490;4.912;2022-09-09T15:41:27;27.20;64.70
40123;DHT22;25832;45.490;4.912;2022-09-09T15:43:54;27.20;64.80
40123;DHT22;25832;45.490;4.912;2022-09-09T15:48:49;27.00;65.80
40123;DHT22;25832;45.490;4.912;2022-09-09T15:51:16;26.80;62.90
40123;DHT22;25832;45.490;4.912;2022-09-09T15:53:41;26.70;63.20
40123;DHT22;25832;45.490;4.912;2022-09-09T15:56:08;26.50;62.70
40123;DHT22;25832;45.490;4.912;2022-09-09T15:58:35;26.40;64.90
40123;DHT22;25832;45.490;4.912;2022-09-09T16:01:09;26.40;65.00
40123;DHT22;25832;45.490;4.912;2022-09-09T16:03:41;26.30;65.40
40123;DHT22;25832;45.490;4.912;2022-09-09T16:06:08;26.20;64.20
40123;DHT22;25832;45.490;4.912;2022-09-09T16:08:39;26.20;66.00
40123;DHT22;25832;45.490;4.912;2022-09-09T16:11:10;26.20;65.00
40123;DHT22;25832;45.490;4.912;2022-09-09T16:13:37;26.10;65.10
40123;DHT22;25832;45.490;4.912;2022-09-09T16:16:04;26.00;64.80
40123;DHT22;25832;45.490;4.912;2022-09-09T16:18:44;25.90;66.40
40123;DHT22;25832;45.490;4.912;2022-09-09T16:21:25;25.80;65.00
40123;DHT22;25832;45.490;4.912;2022-09-09T16:23:52;25.70;66.00
40123;DHT22;25832;45.490;4.912;2022-09-09T16:26:22;25.60;66.90
40123;DHT22;25832;45.490;4.912;2022-09-09T16:28:49;25.50;67.60
40123;DHT22;25832;45.490;4.912;2022-09-09T16:31:19;25.50;68.30
40123;DHT22;25832;45.490;4.912;2022-09-09T16:33:45;25.30;70.50
40123;DHT22;25832;45.490;4.912;2022-09-09T16:36:16;25.20;71.60
40123;DHT22;25832;45.490;4.912;2022-09-09T16:38:42;25.20;69.80
40123;DHT22;25832;45.490;4.912;2022-09-09T16:41:09;25.20;68.90
40123;DHT22;25832;45.490;4.912;2022-09-09T16:43:36;25.10;71.20
40123;DHT22;25832;45.490;4.912;2022-09-09T16:46:03;25.20;73.80
40123;DHT22;25832;45.490;4.912;2022-09-09T16:48:35;25.30;72.90
40123;DHT22;25832;45.490;4.912;2022-09-09T16:51:07;25.40;67.70
40123;DHT22;25832;45.490;4.912;2022-09-09T16:53:36;25.60;70.00
40123;DHT22;25832;45.490;4.912;2022-09-09T16:56:06;25.70;68.70
40123;DHT22;25832;45.490;4.912;2022-09-09T16:58:32;25.80;69.10
40123;DHT22;25832;45.490;4.912;2022-09-09T17:00:58;25.90;68.30
40123;DHT22;25832;45.490;4.912;2022-09-09T17:03:24;26.00;68.10
40123;DHT22;25832;45.490;4.912;2022-09-09T17:05:50;26.00;67.80
40123;DHT22;25832;45.490;4.912;2022-09-09T17:08:16;26.00;68.60
40123;DHT22;25832;45.490;4.912;2022-09-09T17:10:42;25.90;69.90
40123;DHT22;25832;45.490;4.912;2022-09-09T17:13:08;25.80;69.50
40123;DHT22;25832;45.490;4.912;2022-09-09T17:15:39;25.60;71.50
40123;DHT22;25832;45.490;4.912;2022-09-09T17:18:11;25.30;72.90
40123;DHT22;25832;45.490;4.912;2022-09-09T17:20:40;25.00;74.80
40123;DHT22;25832;45.490;4.912;2022-09-09T17:23:11;24.80;74.70
40123;DHT22;25832;45.490;4.912;2022-09-09T17:25:39;24.60;72.20
40123;DHT22;25832;45.490;4.912;2022-09-09T17:28:04;24.40;69.90
40123;DHT22;25832;45.490;4.912;2022-09-09T17:30:34;24.20;72.30
40123;DHT22;25832;45.490;4.912;2022-09-09T17:33:00;24.00;73.30
40123;DHT22;25832;45.490;4.912;2022-09-09T17:35:26;23.80;73.50
40123;DHT22;25832;45.490;4.912;2022-09-09T17:37:55;23.70;74.20
40123;DHT22;25832;45.490;4.912;2022-09-09T17:40:21;23.40;74.60
40123;DHT22;25832;45.490;4.912;2022-09-09T17:42:47;23.30;74.70
40123;DHT22;25832;45.490;4.912;2022-09-09T17:45:14;23.10;74.90
40123;DHT22;25832;45.490;4.912;2022-09-09T17:47:40;23.00;75.00
40123;DHT22;25832;45.490;4.912;2022-09-09T17:50:09;22.90;76.40
40123;DHT22;25832;45.490;4.912;2022-09-09T17:52:35;22.70;76.30